createdAt,value
2022-08-11T00:02:34.056Z,64.77
2022-08-11T00:07:45.162Z,64.07
2022-08-11T00:12:52.365Z,64.89
2022-08-11T00:17:57.969Z,64.58
2022-08-11T00:23:07.231Z,65.05
2022-08-11T00:28:24.914Z,65.74
2022-08-11T00:33:44.215Z,65.69
2022-08-11T00:38:52.652Z,66.27
2022-08-11T00:44:23.400Z,66.30
2022-08-11T00:49:39.480Z,66.37
2022-08-11T00:55:18.344Z,66.86
2022-08-11T01:00:23.118Z,67.02
2022-08-11T01:05:51.094Z,66.77
2022-08-11T01:11:23.547Z,66.84
2022-08-11T01:17:04.183Z,67.10
2022-08-11T01:23:00.002Z,67.92
2022-08-11T01:28:36.277Z,68.01
2022-08-11T01:34:29.674Z,68.92
2022-08-11T01:40:10.639Z,68.77
2022-08-11T01:45:31.334Z,69.61
2022-08-11T01:50:51.760Z,69.28
2022-08-11T01:56:09.451Z,69.17
2022-08-11T02:01:33.367Z,68.90
2022-08-11T02:06:45.198Z,69.32
2022-08-11T02:11:51.301Z,69.08
2022-08-11T02:17:02.200Z,69.17
2022-08-11T02:22:13.317Z,68.91
2022-08-11T02:27:20.822Z,68.91
2022-08-11T02:32:30.775Z,69.03
2022-08-11T02:37:42.715Z,69.40
2022-08-11T02:43:01.778Z,70.31
2022-08-11T02:48:13.343Z,70.30
2022-08-11T02:53:24.600Z,71.24
2022-08-11T02:58:49.142Z,70.99
2022-08-11T03:03:55.583Z,71.93
2022-08-11T03:09:06.836Z,71.25
2022-08-11T03:14:16.069Z,72.43
2022-08-11T03:19:28.870Z,71.58
2022-08-11T03:24:42.660Z,71.45
2022-08-11T03:30:01.927Z,71.95
2022-08-11T03:35:06.536Z,73.03
2022-08-11T03:40:20.524Z,72.36
2022-08-11T03:45:31.193Z,72.17
2022-08-11T03:50:55.470Z,72.14
2022-08-11T03:56:22.950Z,72.40
2022-08-11T04:01:46.302Z,72.89
2022-08-11T04:07:17.617Z,72.19
2022-08-11T04:12:36.000Z,72.24
2022-08-11T04:18:29.949Z,72.14
2022-08-11T04:24:34.406Z,71.72
2022-08-11T04:30:04.913Z,71.75
2022-08-11T04:35:33.121Z,71.20
2022-08-11T04:41:14.267Z,71.24
2022-08-11T04:46:51.343Z,70.88
2022-08-11T04:52:19.729Z,70.45
2022-08-11T04:57:35.502Z,69.91
2022-08-11T05:03:16.483Z,67.64
2022-08-11T05:08:49.450Z,60.76
2022-08-11T05:14:18.706Z,53.15
2022-08-11T05:19:25.228Z,47.58
2022-08-11T05:24:33.601Z,44.98
2022-08-11T05:29:46.380Z,43.86
2022-08-11T05:34:52.382Z,43.07
2022-08-11T05:40:01.367Z,40.08
2022-08-11T05:45:15.673Z,42.59
2022-08-11T05:50:31.381Z,39.64
2022-08-11T05:56:03.171Z,41.00
2022-08-11T06:01:04.067Z,37.13
2022-08-11T06:06:10.642Z,38.62
2022-08-11T06:11:13.905Z,35.03
2022-08-11T06:16:23.126Z,35.97
2022-08-11T06:21:25.473Z,34.24
2022-08-11T06:26:27.823Z,38.59
2022-08-11T06:31:33.926Z,39.72
2022-08-11T06:36:43.223Z,42.81
2022-08-11T06:41:49.702Z,42.77
2022-08-11T06:51:56.740Z,45.41
2022-08-11T06:57:29.462Z,45.33
2022-08-11T07:02:32.184Z,45.05
2022-08-11T07:08:33.044Z,44.44
2022-08-11T07:13:44.164Z,43.92
2022-08-11T07:18:50.500Z,42.14
2022-08-11T07:23:55.873Z,41.84
2022-08-11T07:29:00.323Z,43.17
2022-08-11T07:34:23.265Z,42.51
2022-08-11T07:39:27.586Z,43.58
2022-08-11T07:44:34.761Z,41.47
2022-08-11T07:49:40.402Z,41.98
2022-08-11T07:54:43.597Z,40.69
2022-08-11T08:00:00.030Z,40.30
2022-08-11T08:05:09.103Z,40.02
2022-08-11T08:10:14.161Z,40.71
2022-08-11T08:15:21.228Z,36.87
2022-08-11T08:20:28.168Z,35.08
2022-08-11T08:25:32.220Z,36.48
2022-08-11T08:30:34.992Z,38.07
2022-08-11T08:35:54.497Z,35.82
2022-08-11T08:40:58.282Z,34.53
2022-08-11T08:46:01.390Z,34.42
2022-08-11T08:51:11.920Z,34.48
2022-08-11T08:56:14.608Z,33.96
2022-08-11T09:01:23.085Z,31.99
2022-08-11T09:06:30.003Z,25.42
2022-08-11T09:11:32.341Z,24.86
2022-08-11T09:16:35.193Z,23.58
2022-08-11T09:21:48.546Z,21.66
2022-08-11T09:26:52.865Z,22.75
2022-08-11T09:31:56.377Z,21.23
2022-08-11T09:37:00.530Z,21.97
2022-08-11T09:42:04.629Z,23.29
2022-08-11T09:47:07.425Z,24.68
2022-08-11T09:52:11.853Z,26.97
2022-08-11T09:57:14.207Z,23.04
2022-08-11T10:02:16.949Z,22.69
2022-08-11T10:07:21.136Z,21.33
2022-08-11T10:12:25.407Z,20.90
2022-08-11T10:17:30.905Z,22.51
2022-08-11T10:22:36.063Z,22.58
2022-08-11T10:28:30.831Z,22.23
2022-08-11T10:33:36.946Z,23.22
2022-08-11T10:38:42.565Z,20.38
2022-08-11T10:44:02.517Z,20.82
2022-08-11T10:49:06.497Z,19.62
2022-08-11T10:54:12.389Z,22.50
2022-08-11T10:59:16.115Z,23.13
2022-08-11T11:04:21.156Z,25.68
2022-08-11T11:09:28.454Z,25.12
2022-08-11T11:14:32.223Z,24.65
2022-08-11T11:19:39.674Z,25.22
2022-08-11T11:24:56.335Z,26.24
2022-08-11T11:30:05.158Z,25.88
2022-08-11T11:35:36.136Z,27.02
2022-08-11T11:40:40.861Z,29.83
2022-08-11T11:45:43.169Z,26.69
2022-08-11T11:50:45.585Z,26.56
2022-08-11T11:55:48.872Z,26.40
2022-08-11T12:00:52.664Z,26.24
2022-08-11T12:05:55.004Z,26.14
2022-08-11T12:11:02.720Z,24.19
2022-08-11T12:16:33.091Z,24.42
2022-08-11T12:21:29.634Z,25.80
2022-08-11T12:26:33.882Z,25.84
2022-08-11T12:31:37.125Z,26.69
2022-08-11T12:36:41.505Z,25.81
2022-08-11T12:41:45.897Z,25.50
2022-08-11T12:46:49.746Z,25.59
2022-08-11T12:52:06.773Z,27.13
2022-08-11T12:57:45.790Z,25.68
2022-08-11T13:02:49.214Z,25.38
2022-08-11T13:07:52.913Z,26.71
2022-08-11T13:12:56.338Z,25.80
2022-08-11T13:18:00.222Z,26.76
2022-08-11T13:23:03.700Z,26.73
2022-08-11T13:28:07.559Z,26.64
2022-08-11T13:33:10.225Z,25.82
2022-08-11T13:38:19.081Z,25.49
2022-08-11T13:43:24.731Z,25.65
2022-08-11T13:48:26.557Z,24.97
2022-08-11T13:53:31.271Z,24.22
2022-08-11T13:58:40.620Z,24.83
2022-08-11T14:04:31.486Z,25.07
2022-08-11T14:09:10.392Z,25.03
2022-08-11T14:14:21.385Z,24.83
2022-08-11T14:19:26.486Z,24.89
2022-08-11T14:24:29.298Z,24.03
2022-08-11T14:29:33.639Z,24.00
2022-08-11T14:34:51.231Z,25.02
2022-08-11T14:40:02.855Z,24.12
2022-08-11T14:45:12.096Z,24.65
2022-08-11T14:50:16.870Z,23.70
2022-08-11T14:55:20.653Z,23.94
2022-08-11T15:00:24.912Z,23.78
2022-08-11T15:05:27.926Z,23.22
2022-08-11T15:10:30.202Z,23.37
2022-08-11T15:15:34.686Z,22.62
2022-08-11T15:20:37.075Z,22.64
2022-08-11T15:25:42.372Z,23.39
2022-08-11T15:30:47.778Z,22.87
2022-08-11T15:35:51.845Z,23.15
2022-08-11T15:40:57.470Z,23.06
2022-08-11T15:46:04.220Z,22.48
2022-08-11T15:51:10.081Z,23.12
2022-08-11T15:56:12.632Z,23.16
2022-08-11T16:01:18.945Z,22.58
2022-08-11T16:06:22.500Z,23.18
2022-08-11T16:11:27.415Z,22.51
2022-08-11T16:16:31.389Z,23.21
2022-08-11T16:21:36.514Z,22.89
2022-08-11T16:27:10.683Z,22.42
2022-08-11T16:32:08.279Z,22.48
2022-08-11T16:37:11.047Z,23.02
2022-08-11T16:43:04.348Z,23.39
2022-08-11T16:48:02.784Z,22.67
2022-08-11T16:52:59.834Z,22.91
2022-08-11T16:58:02.484Z,23.67
2022-08-11T17:03:07.003Z,22.89
2022-08-11T17:08:10.529Z,23.30
2022-08-11T17:13:16.046Z,23.21
2022-08-11T17:18:22.441Z,22.58
2022-08-11T17:23:24.642Z,22.57
2022-08-11T17:28:27.372Z,21.97
2022-08-11T17:33:31.891Z,22.62
2022-08-11T17:38:36.049Z,23.29
2022-08-11T17:43:38.813Z,22.91
2022-08-11T17:48:47.649Z,23.08
2022-08-11T17:54:02.175Z,23.85
2022-08-11T17:59:15.072Z,24.91
2022-08-11T18:04:20.938Z,24.94
2022-08-11T18:09:23.918Z,24.25
2022-08-11T18:14:26.952Z,25.29
2022-08-11T18:19:31.061Z,25.33
2022-08-11T18:24:39.719Z,25.86
2022-08-11T18:29:43.967Z,25.92
2022-08-11T18:34:50.394Z,27.78
2022-08-11T18:39:58.849Z,28.69
2022-08-11T18:45:04.767Z,31.18
2022-08-11T18:50:13.872Z,30.24
2022-08-11T18:55:20.385Z,29.16
2022-08-11T19:00:23.351Z,30.46
2022-08-11T19:06:35.519Z,30.94
2022-08-11T19:10:53.388Z,31.22
2022-08-11T19:15:56.203Z,32.72
2022-08-11T19:21:00.746Z,32.27
2022-08-11T19:26:04.092Z,34.98
2022-08-11T19:31:08.715Z,34.49
2022-08-11T19:36:12.899Z,37.89
2022-08-11T19:41:15.891Z,37.04
2022-08-11T19:46:23.365Z,37.66
2022-08-11T19:51:28.740Z,39.47
2022-08-11T19:56:31.797Z,40.22
2022-08-11T20:01:33.613Z,41.23
2022-08-11T20:06:38.591Z,42.28
2022-08-11T20:11:43.210Z,42.29
2022-08-11T20:16:46.984Z,42.82
2022-08-11T20:21:50.704Z,42.90
2022-08-11T20:26:53.842Z,42.00
2022-08-11T20:31:56.765Z,44.75
2022-08-11T20:37:01.895Z,44.35
2022-08-11T20:42:05.177Z,46.50
2022-08-11T20:47:13.194Z,44.21
2022-08-11T20:52:18.828Z,46.13
2022-08-11T20:57:58.593Z,46.60
2022-08-11T21:02:50.093Z,47.07
2022-08-11T21:07:59.058Z,47.30
2022-08-11T21:13:25.573Z,47.42
2022-08-11T21:18:28.568Z,47.35
2022-08-11T21:23:34.495Z,47.71
2022-08-11T21:28:39.561Z,49.27
2022-08-11T21:33:42.301Z,48.09
2022-08-11T21:38:48.611Z,46.54
2022-08-11T21:43:52.663Z,47.58
2022-08-11T21:48:55.361Z,46.25
2022-08-11T21:54:00.854Z,45.30
2022-08-11T21:59:07.251Z,43.55
2022-08-11T22:04:11.118Z,43.69
2022-08-11T22:09:14.639Z,43.69
2022-08-11T22:14:16.638Z,43.74
2022-08-11T22:19:19.771Z,44.32
2022-08-11T22:24:30.078Z,45.55
2022-08-11T22:29:50.580Z,45.89
2022-08-11T22:34:54.677Z,47.04
2022-08-11T22:40:02.429Z,48.35
2022-08-11T22:45:05.975Z,49.13
2022-08-11T22:50:10.384Z,49.49
2022-08-11T22:55:15.188Z,49.88
2022-08-11T23:00:17.471Z,50.88
2022-08-11T23:05:19.929Z,52.74
2022-08-11T23:10:24.062Z,52.82
2022-08-11T23:15:26.676Z,53.83
2022-08-11T23:20:44.926Z,53.66
2022-08-11T23:25:56.098Z,54.41
2022-08-11T23:30:59.975Z,55.16
2022-08-11T23:36:05.292Z,54.97
2022-08-11T23:41:09.949Z,56.01
2022-08-11T23:46:12.123Z,55.54
2022-08-11T23:51:17.371Z,56.36
2022-08-11T23:56:21.849Z,57.41
